Time;durP1;ratioP1;P1;durP2;ratioP2;P2;SDS_P1;SDS_P2;PMS_P1;PMS_P2;Temp;Humidity;BMP_temperature;BMP_pressure;BME280_temperature;BME280_humidity;BME280_pressure;Samples;Min_cycle;Max_cycle;Signal;HPM_P1;HPM_P2
2023/05/30 00:01:58;;;;;;;4.28;2.40;;;;;;;16.27;58.21;96388.53;5101103;28;20044;-89
2023/05/30 00:04:25;;;;;;;4.70;3.13;;;;;;;16.24;57.70;96384.56;5099494;28;20051;-88
2023/05/30 00:06:51;;;;;;;4.72;3.00;;;;;;;16.22;57.95;96389.59;5100387;28;20064;-88
2023/05/30 00:09:18;;;;;;;5.03;2.97;;;;;;;16.20;57.51;96394.66;5099645;28;20501;-88
2023/05/30 00:11:45;;;;;;;5.07;2.92;;;;;;;16.18;57.69;96394.19;5101404;28;20455;-88
2023/05/30 00:14:12;;;;;;;4.80;3.13;;;;;;;16.18;57.36;96399.69;5101159;28;20044;-88
2023/05/30 00:16:41;;;;;;;4.40;2.92;;;;;;;16.19;57.09;96395.81;5100931;28;20055;-89
2023/05/30 00:19:07;;;;;;;5.25;3.25;;;;;;;16.17;57.60;96390.63;5100412;28;20036;-87
2023/05/30 00:21:35;;;;;;;5.47;3.08;;;;;;;16.19;57.81;96404.03;5094785;28;20571;-88
2023/05/30 00:24:04;;;;;;;6.25;2.97;;;;;;;16.22;58.49;96400.56;5100102;28;20048;-89
2023/05/30 00:26:30;;;;;;;5.88;2.88;;;;;;;16.23;58.83;96402.16;5100621;28;20050;-88
2023/05/30 00:28:57;;;;;;;4.32;2.80;;;;;;;16.17;58.32;96400.84;5100103;28;20497;-89
2023/05/30 00:31:26;;;;;;;5.88;3.17;;;;;;;16.10;58.15;96397.91;5099893;28;20042;-88
2023/05/30 00:33:52;;;;;;;5.20;3.03;;;;;;;16.03;58.31;96395.78;5100499;28;20075;-90
2023/05/30 00:36:19;;;;;;;4.88;2.85;;;;;;;15.94;58.53;96397.09;5099160;28;20397;-89
2023/05/30 00:38:46;;;;;;;5.22;3.00;;;;;;;15.78;58.88;96400.59;5098534;28;20055;-89
2023/05/30 00:41:12;;;;;;;6.90;3.17;;;;;;;15.61;59.57;96400.88;5096835;28;20055;-89
2023/05/30 00:43:39;;;;;;;6.50;3.08;;;;;;;15.42;60.45;96403.44;5097521;28;20054;-89
2023/05/30 00:46:07;;;;;;;5.68;3.50;;;;;;;15.30;60.91;96407.03;5095566;28;20073;-90
2023/05/30 00:48:35;;;;;;;6.20;3.13;;;;;;;15.16;61.81;96407.41;5096679;28;20044;-89
2023/05/30 00:51:01;;;;;;;5.82;3.28;;;;;;;15.06;62.20;96407.88;5096462;28;20457;-90
2023/05/30 00:53:29;;;;;;;8.35;3.28;;;;;;;14.99;63.21;96415.88;5094799;28;20044;-90
2023/05/30 00:55:55;;;;;;;5.57;3.30;;;;;;;14.90;63.58;96407.78;5093316;28;20044;-90
2023/05/30 00:58:22;;;;;;;5.20;3.08;;;;;;;14.92;63.47;96402.75;5095276;28;20131;-89
2023/05/30 01:00:49;;;;;;;6.18;3.88;;;;;;;14.92;63.23;96408.22;5095066;28;20047;-89
2023/05/30 01:03:17;;;;;;;7.95;3.67;;;;;;;14.84;63.38;96407.22;5094543;28;20051;-90
2023/05/30 01:05:45;;;;;;;5.10;3.13;;;;;;;14.89;62.33;96400.69;5093214;28;20051;-89
2023/05/30 01:08:11;;;;;;;5.20;2.65;;;;;;;14.95;62.24;96402.06;5089241;28;20044;-90
2023/05/30 01:10:38;;;;;;;4.28;2.78;;;;;;;15.00;62.29;96403.78;5091372;28;20142;-90
2023/05/30 01:13:16;;;;;;;6.40;3.10;;;;;;;15.06;62.15;96402.38;5094363;28;20044;-90
2023/05/30 01:15:49;;;;;;;5.40;3.17;;;;;;;15.09;61.65;96401.72;5094819;28;20047;-90
2023/05/30 01:18:20;;;;;;;6.40;2.60;;;;;;;15.09;61.36;96412.69;5094980;28;20086;-90
2023/05/30 01:20:51;;;;;;;6.38;3.15;;;;;;;15.10;61.78;96412.31;5095266;28;20051;-89
2023/05/30 01:23:37;;;;;;;5.18;2.80;;;;;;;15.09;61.73;96412.69;5088809;28;20402;-89
2023/05/30 01:26:14;;;;;;;5.00;2.85;;;;;;;15.07;61.65;96413.00;5093864;28;20649;-90
2023/05/30 01:28:45;;;;;;;4.20;2.80;;;;;;;15.05;62.26;96411.75;5094705;28;20098;-90
2023/05/30 01:31:12;;;;;;;4.32;2.70;;;;;;;15.05;62.24;96414.50;5094640;28;20126;-89
2023/05/30 01:33:40;;;;;;;5.50;3.10;;;;;;;15.05;61.33;96411.75;5094417;28;20052;-90
2023/05/30 01:36:07;;;;;;;4.43;2.92;;;;;;;15.06;60.57;96421.59;5092875;28;20044;-90
2023/05/30 01:38:34;;;;;;;6.15;3.15;;;;;;;15.04;60.34;96415.66;5094402;28;20058;-89
2023/05/30 01:41:01;;;;;;;4.47;2.60;;;;;;;15.00;60.52;96409.25;5091516;28;20064;-88
2023/05/30 01:43:39;;;;;;;3.97;2.50;;;;;;;14.96;60.64;96408.34;5095108;28;20040;-90
2023/05/30 01:46:17;;;;;;;5.55;2.70;;;;;;;14.92;61.59;96413.69;5092904;28;20048;-90
2023/05/30 01:48:53;;;;;;;6.57;3.00;;;;;;;14.88;63.23;96419.09;5093673;28;20052;-89
2023/05/30 01:51:25;;;;;;;4.80;2.60;;;;;;;14.88;63.22;96415.56;5095798;28;20531;-88
2023/05/30 01:53:57;;;;;;;4.53;2.92;;;;;;;14.86;62.39;96420.56;5096108;28;20066;-89
2023/05/30 01:56:27;;;;;;;6.22;2.80;;;;;;;14.82;62.07;96417.72;5095552;28;20040;-87
2023/05/30 01:58:54;;;;;;;5.25;2.88;;;;;;;14.77;61.70;96411.66;5090966;28;20044;-85
2023/05/30 02:01:26;;;;;;;4.00;2.60;;;;;;;14.67;62.09;96425.81;5092877;28;20051;-85
2023/05/30 02:03:53;;;;;;;6.40;3.20;;;;;;;14.59;62.74;96422.06;5086616;28;20055;-85
2023/05/30 02:06:20;;;;;;;4.82;2.85;;;;;;;14.53;63.42;96429.72;5087362;28;20040;-87
2023/05/30 02:08:46;;;;;;;5.70;3.00;;;;;;;14.45;63.83;96427.84;5092073;28;20055;-89
2023/05/30 02:11:13;;;;;;;6.50;3.30;;;;;;;14.40;63.85;96419.03;5091540;28;20046;-88
2023/05/30 02:13:39;;;;;;;4.80;3.10;;;;;;;14.35;63.80;96417.31;5092751;28;20051;-89
2023/05/30 02:16:06;;;;;;;6.55;3.53;;;;;;;14.31;64.23;96421.91;5091902;28;20048;-90
2023/05/30 02:18:34;;;;;;;6.93;3.13;;;;;;;14.28;63.97;96420.63;5092520;28;20055;-90
2023/05/30 02:21:02;;;;;;;6.05;3.17;;;;;;;14.23;64.36;96423.59;5093756;28;20562;-89
2023/05/30 02:23:28;;;;;;;5.93;3.03;;;;;;;14.16;64.27;96426.09;5093451;28;20567;-90
2023/05/30 02:25:54;;;;;;;4.80;2.95;;;;;;;14.13;64.24;96420.47;5092434;28;20048;-89
2023/05/30 02:28:21;;;;;;;6.13;3.03;;;;;;;14.15;64.35;96419.03;5091783;28;20040;-89
2023/05/30 02:30:47;;;;;;;4.65;2.97;;;;;;;14.18;65.19;96415.59;5091967;28;20052;-90
2023/05/30 02:33:14;;;;;;;5.45;3.10;;;;;;;14.19;64.11;96421.84;5091343;28;20051;-90
2023/05/30 02:35:42;;;;;;;5.22;2.88;;;;;;;14.19;64.46;96414.44;5091147;28;20484;-91
2023/05/30 02:38:08;;;;;;;5.35;2.78;;;;;;;14.18;63.76;96412.84;5091056;28;20055;-89
2023/05/30 02:40:35;;;;;;;6.38;3.13;;;;;;;14.19;63.21;96419.13;5095175;28;20040;-88
2023/05/30 02:43:01;;;;;;;5.00;3.17;;;;;;;14.16;62.78;96417.88;5094617;28;20044;-90
2023/05/30 02:45:28;;;;;;;6.75;3.33;;;;;;;14.13;62.94;96410.31;5094370;28;20040;-90
2023/05/30 02:47:55;;;;;;;5.10;3.22;;;;;;;14.13;62.66;96412.28;5096851;28;20043;-87
2023/05/30 02:50:21;;;;;;;7.32;3.50;;;;;;;14.12;62.73;96408.72;5095793;28;21548;-90
2023/05/30 02:52:49;;;;;;;5.00;2.95;;;;;;;14.11;62.75;96407.13;5094809;28;20047;-89
2023/05/30 02:55:16;;;;;;;5.85;3.20;;;;;;;14.12;63.20;96408.72;5094176;28;20040;-89
2023/05/30 02:57:42;;;;;;;7.00;3.25;;;;;;;14.14;63.67;96411.91;5094490;28;20040;-89
2023/05/30 03:00:13;;;;;;;5.57;2.88;;;;;;;14.12;63.49;96414.22;5094425;28;20097;-89
2023/05/30 03:02:40;;;;;;;6.00;3.47;;;;;;;14.11;63.38;96415.34;5095931;28;20051;-90
2023/05/30 03:05:07;;;;;;;5.28;3.30;;;;;;;14.12;63.83;96416.94;5094686;28;20047;-89
2023/05/30 03:07:35;;;;;;;5.32;3.30;;;;;;;14.10;63.79;96411.03;5094229;28;20529;-90
2023/05/30 03:10:03;;;;;;;4.90;3.10;;;;;;;14.09;63.61;96414.88;5094356;28;20036;-90
2023/05/30 03:12:30;;;;;;;6.60;3.03;;;;;;;14.09;63.08;96420.34;5091123;28;20040;-88
2023/05/30 03:14:57;;;;;;;6.57;3.10;;;;;;;14.11;63.00;96418.09;5095691;28;20069;-89
2023/05/30 03:17:23;;;;;;;4.40;2.75;;;;;;;14.11;63.40;96429.03;5094171;28;20043;-89
2023/05/30 03:19:51;;;;;;;5.97;3.13;;;;;;;14.12;63.30;96418.88;5095311;28;20055;-88
2023/05/30 03:22:17;;;;;;;4.88;3.08;;;;;;;14.09;63.32;96421.19;5093882;28;20047;-88
2023/05/30 03:24:44;;;;;;;5.78;3.03;;;;;;;14.09;63.16;96423.91;5095096;28;20070;-90
2023/05/30 03:27:12;;;;;;;5.07;3.10;;;;;;;14.08;63.24;96427.78;5094409;28;20040;-90
2023/05/30 03:29:39;;;;;;;8.00;3.00;;;;;;;14.06;63.32;96432.00;5095935;28;20052;-89
2023/05/30 03:32:06;;;;;;;6.35;3.50;;;;;;;14.04;63.28;96429.59;5093257;28;20040;-89
2023/05/30 03:34:33;;;;;;;5.57;2.92;;;;;;;14.03;63.43;96427.97;5092580;28;20048;-89
2023/05/30 03:37:00;;;;;;;7.55;3.05;;;;;;;13.99;63.69;96434.47;5092763;28;20123;-90
2023/05/30 03:39:27;;;;;;;6.22;3.38;;;;;;;13.98;63.70;96430.13;5092364;28;20052;-89
2023/05/30 03:41:53;;;;;;;4.55;3.00;;;;;;;13.93;64.47;96433.09;5092830;28;20048;-89
2023/05/30 03:44:21;;;;;;;5.45;3.15;;;;;;;13.91;64.28;96440.84;5092763;28;20048;-89
2023/05/30 03:46:48;;;;;;;5.05;3.00;;;;;;;13.86;64.31;96428.16;5090097;28;20036;-90
2023/05/30 03:49:15;;;;;;;6.55;3.22;;;;;;;13.83;64.47;96439.78;5092192;28;20067;-90
2023/05/30 03:51:41;;;;;;;5.90;3.05;;;;;;;13.78;64.97;96438.06;5088154;28;20425;-89
2023/05/30 03:54:08;;;;;;;9.60;4.75;;;;;;;13.70;65.16;96436.22;5091652;28;20036;-89
2023/05/30 03:56:34;;;;;;;9.35;4.68;;;;;;;13.73;65.17;96441.03;5091730;28;20051;-87
2023/05/30 03:59:01;;;;;;;8.57;5.22;;;;;;;13.76;66.53;96440.34;5092969;28;20558;-90
2023/05/30 04:01:30;;;;;;;6.82;4.40;;;;;;;13.78;66.58;96445.47;5092274;28;20420;-90
2023/05/30 04:03:57;;;;;;;8.75;3.65;;;;;;;13.76;66.68;96440.34;5092939;28;20060;-89
2023/05/30 04:06:24;;;;;;;7.97;3.80;;;;;;;13.73;66.60;96445.66;5091918;28;20044;-90
2023/05/30 04:08:50;;;;;;;8.40;4.13;;;;;;;13.75;66.33;96444.22;5092335;28;20048;-89
2023/05/30 04:11:17;;;;;;;5.65;3.10;;;;;;;13.78;66.37;96443.56;5091453;28;20055;-90
2023/05/30 04:13:44;;;;;;;6.13;3.28;;;;;;;13.82;66.00;96449.94;5092902;28;20040;-90
2023/05/30 04:16:10;;;;;;;6.25;3.60;;;;;;;13.85;65.66;96443.00;5091928;28;20572;-89
2023/05/30 04:18:43;;;;;;;5.63;3.20;;;;;;;13.92;65.20;96447.91;5095642;28;20039;-89
2023/05/30 04:21:11;;;;;;;7.05;3.10;;;;;;;13.96;65.29;96443.38;5093150;28;20090;-89
2023/05/30 04:23:39;;;;;;;7.97;3.53;;;;;;;13.99;64.87;96448.16;5096309;28;20058;-89
2023/05/30 04:26:06;;;;;;;5.10;3.35;;;;;;;13.93;64.77;96455.00;5094077;28;20054;-90
2023/05/30 04:28:36;;;;;;;7.30;3.40;;;;;;;13.92;65.06;96453.38;5096015;28;20048;-85
2023/05/30 04:31:05;;;;;;;6.88;3.22;;;;;;;13.92;65.24;96454.19;5095158;28;20044;-90
2023/05/30 04:33:34;;;;;;;11.32;3.38;;;;;;;13.90;65.61;96450.19;5095985;28;20048;-89
2023/05/30 04:36:04;;;;;;;8.90;3.58;;;;;;;13.92;65.38;96454.19;5094916;28;20044;-90
2023/05/30 04:38:32;;;;;;;4.05;2.83;;;;;;;13.93;65.60;96455.00;5090677;28;20036;-89
2023/05/30 04:41:00;;;;;;;6.63;3.38;;;;;;;13.93;65.23;96455.78;5095643;28;20058;-89
2023/05/30 04:43:27;;;;;;;5.18;2.83;;;;;;;13.95;65.38;96458.22;5093750;28;20109;-87
2023/05/30 04:45:54;;;;;;;6.07;3.45;;;;;;;13.97;65.56;96462.19;5093248;28;20055;-90
2023/05/30 04:48:22;;;;;;;5.45;2.88;;;;;;;14.01;65.80;96467.81;5093512;28;20412;-90
2023/05/30 04:50:49;;;;;;;5.70;3.10;;;;;;;14.07;65.96;96469.19;5094483;28;20101;-89
2023/05/30 04:53:17;;;;;;;6.65;3.05;;;;;;;14.14;66.36;96480.38;5094113;28;20044;-89
2023/05/30 04:55:44;;;;;;;4.90;3.05;;;;;;;14.23;67.84;96474.81;5093996;28;20044;-89
2023/05/30 04:58:11;;;;;;;8.48;3.95;;;;;;;14.25;67.16;96473.38;5095105;28;20101;-89
2023/05/30 05:00:38;;;;;;;7.22;3.70;;;;;;;14.23;66.49;96480.31;5093678;28;20101;-89
2023/05/30 05:03:06;;;;;;;5.95;3.30;;;;;;;14.22;65.24;96474.03;5094454;28;20048;-89
2023/05/30 05:05:32;;;;;;;8.10;3.70;;;;;;;14.27;64.69;96481.22;5093947;28;20051;-87
2023/05/30 05:07:59;;;;;;;5.68;3.03;;;;;;;14.31;64.90;96476.69;5093728;28;20726;-89
2023/05/30 05:10:28;;;;;;;5.30;3.20;;;;;;;14.35;64.93;96483.88;5095459;28;20040;-86
2023/05/30 05:12:54;;;;;;;5.43;2.90;;;;;;;14.41;64.67;96476.25;5094191;28;20040;-86
2023/05/30 05:15:21;;;;;;;5.53;3.15;;;;;;;14.46;64.57;96483.44;5092180;28;20059;-85
2023/05/30 05:17:47;;;;;;;5.78;3.13;;;;;;;14.48;64.24;96482.00;5092784;28;20653;-85
2023/05/30 05:20:14;;;;;;;10.52;4.28;;;;;;;14.51;64.49;96485.97;5092910;28;20054;-86
2023/05/30 05:22:40;;;;;;;5.10;3.30;;;;;;;14.54;65.31;96490.78;5090183;28;20051;-85
2023/05/30 05:25:08;;;;;;;6.07;2.97;;;;;;;14.59;65.41;96483.16;5092520;28;20047;-84
2023/05/30 05:27:36;;;;;;;5.75;3.03;;;;;;;14.62;65.05;96484.44;5091068;28;20050;-90
2023/05/30 05:30:02;;;;;;;9.95;4.15;;;;;;;14.66;65.11;96482.56;5092823;28;20051;-88
2023/05/30 05:32:29;;;;;;;8.70;3.50;;;;;;;14.71;65.90;96489.78;5092626;28;20051;-88
2023/05/30 05:34:55;;;;;;;6.43;3.35;;;;;;;14.74;65.38;96498.13;5092631;28;20592;-88
2023/05/30 05:37:22;;;;;;;8.00;3.38;;;;;;;14.77;65.85;96494.72;5091976;28;20063;-90
2023/05/30 05:39:48;;;;;;;4.45;3.08;;;;;;;14.86;65.32;96498.13;5092426;28;20173;-90
2023/05/30 05:42:15;;;;;;;7.13;3.33;;;;;;;14.91;65.30;96499.06;5093778;28;20044;-90
2023/05/30 05:44:43;;;;;;;6.57;3.25;;;;;;;14.92;65.30;96495.97;5092591;28;20048;-89
2023/05/30 05:47:09;;;;;;;6.53;3.42;;;;;;;15.00;64.47;96495.06;5089019;28;20044;-89
2023/05/30 05:49:36;;;;;;;8.93;3.50;;;;;;;14.92;65.49;96495.16;5092793;28;20051;-89
2023/05/30 05:52:02;;;;;;;5.30;3.40;;;;;;;15.08;65.16;96496.88;5091665;28;20048;-89
2023/05/30 05:54:29;;;;;;;4.93;3.13;;;;;;;15.21;65.23;96505.13;5092444;28;20048;-90
2023/05/30 05:56:55;;;;;;;6.28;3.20;;;;;;;15.08;63.59;96490.59;5093321;28;20442;-90
2023/05/30 05:59:22;;;;;;;6.55;3.40;;;;;;;15.26;63.58;96491.97;5089131;28;20062;-90
2023/05/30 06:01:50;;;;;;;5.32;3.20;;;;;;;15.39;62.88;96499.00;5092271;28;20043;-89
2023/05/30 06:04:17;;;;;;;6.47;3.35;;;;;;;15.45;62.05;96498.78;5098633;28;20055;-89
2023/05/30 06:06:44;;;;;;;8.55;3.35;;;;;;;15.56;62.17;96508.97;5098485;28;20051;-88
2023/05/30 06:09:11;;;;;;;7.35;3.30;;;;;;;15.60;60.23;96500.81;5098861;28;20066;-88
2023/05/30 06:11:37;;;;;;;8.48;3.92;;;;;;;15.57;59.79;96498.78;5099220;28;20040;-89
2023/05/30 06:14:05;;;;;;;5.85;2.88;;;;;;;15.78;60.09;96510.41;5099099;28;20048;-88
2023/05/30 06:16:31;;;;;;;9.25;3.35;;;;;;;15.77;59.00;96511.56;5094179;28;20040;-89
2023/05/30 06:18:59;;;;;;;9.98;3.80;;;;;;;15.77;58.43;96511.56;5099179;28;20118;-88
2023/05/30 06:21:25;;;;;;;7.45;2.83;;;;;;;16.00;58.97;96511.03;5099630;28;20501;-89
2023/05/30 06:23:52;;;;;;;8.43;3.30;;;;;;;16.13;61.37;96515.31;5100546;28;20054;-88
2023/05/30 06:26:18;;;;;;;7.53;3.40;;;;;;;16.15;60.71;96510.28;5099493;28;20044;-88
2023/05/30 06:28:48;;;;;;;7.30;3.10;;;;;;;16.18;58.91;96518.63;5099990;28;20055;-88
2023/05/30 06:31:15;;;;;;;6.75;3.35;;;;;;;16.14;57.86;96516.94;5099398;28;20060;-87
2023/05/30 06:33:41;;;;;;;6.47;3.08;;;;;;;16.17;56.73;96518.97;5099161;28;20051;-86
2023/05/30 06:36:10;;;;;;;8.18;3.40;;;;;;;16.40;57.75;96519.22;5098219;28;20036;-88
2023/05/30 06:38:36;;;;;;;4.38;2.95;;;;;;;16.41;57.43;96531.81;5098398;28;20051;-88
2023/05/30 06:41:03;;;;;;;7.60;3.40;;;;;;;16.51;56.52;96538.75;5097774;28;20052;-88
2023/05/30 06:43:29;;;;;;;11.65;3.92;;;;;;;16.62;59.10;96537.06;5098312;28;20048;-88
2023/05/30 06:45:56;;;;;;;6.38;3.00;;;;;;;16.69;56.65;96531.75;5097359;28;20046;-89
2023/05/30 06:48:22;;;;;;;7.75;3.75;;;;;;;16.77;55.88;96538.28;5093548;28;20050;-89
2023/05/30 06:50:49;;;;;;;14.50;10.02;;;;;;;16.94;57.17;96538.72;5097444;28;20409;-88
2023/05/30 06:53:17;;;;;;;6.57;3.70;;;;;;;16.98;55.69;96529.78;5096206;28;20477;-89
2023/05/30 06:55:44;;;;;;;6.40;4.10;;;;;;;17.17;56.53;96543.59;5096127;28;20463;-88
2023/05/30 06:58:10;;;;;;;7.68;3.38;;;;;;;17.22;59.16;96533.13;5096643;28;20040;-89
2023/05/30 07:00:38;;;;;;;7.78;3.78;;;;;;;17.15;55.73;96537.66;5095574;28;20051;-88
2023/05/30 07:03:04;;;;;;;7.18;3.42;;;;;;;17.06;54.49;96537.03;5096174;28;20074;-88
2023/05/30 07:05:31;;;;;;;6.38;3.17;;;;;;;17.07;54.34;96541.38;5096784;28;20527;-89
2023/05/30 07:07:57;;;;;;;8.35;3.60;;;;;;;17.14;53.41;96536.06;5094939;28;20048;-88
2023/05/30 07:10:25;;;;;;;5.65;3.42;;;;;;;17.35;54.68;96533.81;5094197;28;20048;-89
2023/05/30 07:12:52;;;;;;;7.95;3.15;;;;;;;17.54;55.88;96538.59;5095239;28;20433;-88
2023/05/30 07:15:19;;;;;;;6.20;3.67;;;;;;;17.58;55.06;96541.41;5094578;28;20344;-89
2023/05/30 07:17:45;;;;;;;5.53;3.20;;;;;;;17.70;55.30;96536.59;5095965;28;20048;-89
2023/05/30 07:20:12;;;;;;;6.80;3.22;;;;;;;17.76;54.76;96537.16;5093825;28;20051;-88
2023/05/30 07:22:39;;;;;;;8.93;3.55;;;;;;;17.84;52.56;96536.13;5094959;28;20739;-87
2023/05/30 07:25:06;;;;;;;5.32;2.95;;;;;;;18.05;53.69;96535.00;5094352;28;20044;-88
2023/05/30 07:27:34;;;;;;;10.60;3.50;;;;;;;18.16;54.67;96536.00;5089892;28;20058;-86
2023/05/30 07:30:00;;;;;;;9.02;3.13;;;;;;;18.33;54.12;96534.78;5093431;28;20052;-89
2023/05/30 07:32:27;;;;;;;7.97;3.35;;;;;;;18.38;50.81;96543.56;5092913;28;20046;-89
2023/05/30 07:34:53;;;;;;;7.40;2.90;;;;;;;18.42;50.08;96541.66;5092436;28;20048;-90
2023/05/30 07:37:20;;;;;;;4.65;2.85;;;;;;;18.23;48.39;96533.41;5091483;28;20043;-88
2023/05/30 07:39:46;;;;;;;4.93;3.10;;;;;;;18.36;49.70;96534.84;5092214;28;20051;-89
2023/05/30 07:42:13;;;;;;;7.38;3.25;;;;;;;18.41;50.56;96526.28;5092666;28;20048;-88
2023/05/30 07:44:41;;;;;;;8.38;3.47;;;;;;;18.65;51.00;96532.66;5094346;28;20052;-88
2023/05/30 07:47:07;;;;;;;7.78;3.53;;;;;;;18.81;51.02;96527.84;5093983;28;20055;-88
2023/05/30 07:49:34;;;;;;;9.00;2.97;;;;;;;19.06;51.58;96533.00;5090323;28;20036;-87
2023/05/30 07:52:00;;;;;;;8.35;3.25;;;;;;;19.20;51.69;96522.19;5097496;28;20054;-88
2023/05/30 07:54:27;;;;;;;6.85;3.00;;;;;;;19.25;50.27;96519.09;5098830;28;20416;-88
2023/05/30 07:56:53;;;;;;;6.40;3.28;;;;;;;19.23;48.45;96525.00;5097857;28;20055;-88
2023/05/30 07:59:20;;;;;;;8.15;3.38;;;;;;;19.25;47.29;96516.34;5099539;28;20142;-88
2023/05/30 08:01:47;;;;;;;9.27;3.35;;;;;;;19.46;49.43;96515.88;5096287;28;20051;-89
2023/05/30 08:04:14;;;;;;;7.03;3.13;;;;;;;19.55;48.37;96516.41;5094687;28;20051;-88
2023/05/30 08:06:41;;;;;;;7.95;3.03;;;;;;;19.64;49.25;96513.44;5095236;28;20059;-89
2023/05/30 08:09:07;;;;;;;8.90;3.22;;;;;;;19.77;46.10;96523.06;5097905;28;20047;-88
2023/05/30 08:11:34;;;;;;;7.03;2.92;;;;;;;20.13;48.47;96520.78;5100133;28;20054;-88
2023/05/30 08:14:01;;;;;;;4.68;3.05;;;;;;;20.27;46.16;96523.72;5095507;28;20390;-88
2023/05/30 08:16:28;;;;;;;9.32;3.28;;;;;;;20.49;49.60;96517.28;5095789;28;20555;-88
2023/05/30 08:18:56;;;;;;;5.75;3.13;;;;;;;20.72;47.31;96521.88;5096106;28;20044;-88
2023/05/30 08:21:22;;;;;;;5.93;3.22;;;;;;;20.83;45.88;96522.78;5098355;28;20048;-88
2023/05/30 08:23:49;;;;;;;7.20;3.13;;;;;;;20.97;45.15;96522.91;5097864;28;20048;-89
2023/05/30 08:26:16;;;;;;;6.50;3.10;;;;;;;21.24;48.59;96526.28;5097470;28;20048;-87
2023/05/30 08:28:42;;;;;;;5.57;2.95;;;;;;;21.39;46.48;96521.69;5098529;28;20082;-88
2023/05/30 08:31:09;;;;;;;8.65;3.30;;;;;;;21.43;48.07;96521.75;5097045;28;20505;-88
2023/05/30 08:33:36;;;;;;;6.22;2.78;;;;;;;21.28;43.61;96526.34;5095021;28;20066;-89
2023/05/30 08:36:04;;;;;;;7.93;2.90;;;;;;;21.55;42.62;96524.97;5093711;28;20493;-88
2023/05/30 08:38:31;;;;;;;6.32;2.88;;;;;;;21.81;42.53;96525.94;5094727;28;20039;-88
2023/05/30 08:41:03;;;;;;;6.97;3.00;;;;;;;22.05;42.50;96536.38;5097334;28;20040;-88
2023/05/30 08:43:35;;;;;;;5.68;3.20;;;;;;;22.22;43.60;96529.34;5087564;28;20067;-88
2023/05/30 08:46:05;;;;;;;8.50;3.22;;;;;;;22.20;41.59;96534.50;5101266;28;20155;-85
2023/05/30 08:48:38;;;;;;;7.68;3.00;;;;;;;22.17;42.62;96537.25;5096010;28;20044;-86
2023/05/30 08:51:07;;;;;;;9.57;3.17;;;;;;;22.27;41.92;96539.28;5092020;28;20042;-87
2023/05/30 08:53:46;;;;;;;6.80;3.10;;;;;;;22.42;42.98;96527.06;5093709;28;20052;-87
2023/05/30 08:56:21;;;;;;;7.60;3.17;;;;;;;22.45;42.10;96536.56;5091858;28;20044;-88
2023/05/30 08:58:50;;;;;;;7.75;3.58;;;;;;;22.49;43.46;96532.63;5094941;28;20097;-88
2023/05/30 09:01:17;;;;;;;3.35;2.55;;;;;;;22.45;43.51;96540.16;5096616;28;20456;-87
2023/05/30 09:03:45;;;;;;;4.28;2.80;;;;;;;22.63;42.97;96541.00;5094270;28;20044;-88
2023/05/30 09:06:14;;;;;;;5.70;3.40;;;;;;;22.63;41.80;96537.44;5093691;28;20040;-88
2023/05/30 09:08:43;;;;;;;7.80;3.00;;;;;;;22.63;41.56;96535.44;5094957;28;20048;-88
2023/05/30 09:11:11;;;;;;;4.53;3.00;;;;;;;22.78;43.33;96533.50;5094192;28;20105;-88
2023/05/30 09:13:37;;;;;;;8.25;3.60;;;;;;;22.71;41.99;96538.22;5094624;28;20052;-88
2023/05/30 09:16:04;;;;;;;5.57;2.70;;;;;;;22.71;43.50;96538.22;5097815;28;20056;-87
2023/05/30 09:18:31;;;;;;;4.60;2.90;;;;;;;22.85;43.73;96543.81;5107172;28;20044;-87
2023/05/30 09:20:58;;;;;;;4.93;2.97;;;;;;;22.76;42.40;96535.06;5101939;28;20040;-86
2023/05/30 09:23:27;;;;;;;8.05;3.10;;;;;;;22.89;42.34;96530.78;5103108;28;20055;-89
2023/05/30 09:25:54;;;;;;;4.97;2.90;;;;;;;22.85;41.86;96532.72;5104180;28;20070;-89
2023/05/30 09:28:25;;;;;;;5.80;3.10;;;;;;;22.74;44.41;96529.13;5102617;28;20051;-87
2023/05/30 09:30:56;;;;;;;7.85;3.10;;;;;;;22.61;41.40;96540.59;5105476;28;20048;-86
2023/05/30 09:33:24;;;;;;;7.05;3.08;;;;;;;22.70;43.07;96542.19;5102596;28;20090;-89
2023/05/30 09:35:54;;;;;;;11.30;3.78;;;;;;;22.72;42.63;96539.84;5103762;28;20131;-87
2023/05/30 09:38:22;;;;;;;7.63;3.25;;;;;;;23.00;43.48;96533.56;5102441;28;20040;-86
2023/05/30 09:40:52;;;;;;;8.48;2.90;;;;;;;23.02;44.18;96536.75;5102928;28;20063;-88
2023/05/30 09:43:34;;;;;;;5.22;3.15;;;;;;;22.86;41.69;96537.88;5105165;28;20044;-86
2023/05/30 09:46:03;;;;;;;6.72;3.25;;;;;;;22.99;40.43;96532.78;5100771;28;20040;-87
2023/05/30 09:48:30;;;;;;;9.18;2.80;;;;;;;23.14;41.45;96534.38;5104228;28;20040;-87
2023/05/30 09:51:03;;;;;;;5.35;2.60;;;;;;;23.40;42.28;96540.75;5104591;28;20135;-88
2023/05/30 09:53:31;;;;;;;7.43;2.70;;;;;;;23.47;40.97;96535.19;5103763;28;20107;-86
2023/05/30 09:56:02;;;;;;;7.40;2.72;;;;;;;23.41;39.70;96536.78;5105136;28;20056;-88
2023/05/30 09:58:31;;;;;;;8.02;3.08;;;;;;;23.26;40.95;96546.28;5102505;28;20043;-86
2023/05/30 10:00:59;;;;;;;5.43;2.92;;;;;;;23.24;41.08;96543.91;5103248;28;20067;-88
2023/05/30 10:03:42;;;;;;;4.50;2.80;;;;;;;23.34;38.33;96543.13;5103052;28;20083;-86
2023/05/30 10:06:13;;;;;;;9.55;3.67;;;;;;;23.50;41.25;96559.41;5101605;28;20414;-88
2023/05/30 10:08:42;;;;;;;8.00;2.78;;;;;;;23.63;41.70;96546.72;5098344;28;20044;-87
2023/05/30 10:11:11;;;;;;;5.63;2.90;;;;;;;23.51;38.83;96543.53;5101626;28;20074;-87
2023/05/30 10:13:38;;;;;;;7.05;2.75;;;;;;;22.80;38.53;96547.78;5102928;28;20140;-86
2023/05/30 10:16:09;;;;;;;7.97;3.22;;;;;;;22.78;41.42;96541.03;5102790;28;20055;-86
2023/05/30 10:18:42;;;;;;;5.25;2.83;;;;;;;22.59;41.33;96539.41;5086193;28;20113;-88
2023/05/30 10:21:15;;;;;;;6.75;2.80;;;;;;;22.45;40.35;96534.63;5103659;28;20096;-84
2023/05/30 10:23:42;;;;;;;;;;;;;;;22.51;38.89;96535.81;5100551;28;20046;-88
2023/05/30 10:26:13;;;;;;;7.97;2.85;;;;;;;22.52;38.44;96528.28;5098322;28;19920;-86
2023/05/30 10:28:44;;;;;;;6.72;2.90;;;;;;;22.76;39.23;96535.06;5100768;28;20055;-88
2023/05/30 10:31:12;;;;;;;4.70;2.50;;;;;;;23.02;38.84;96529.22;5100142;28;20063;-87
2023/05/30 10:33:42;;;;;;;6.15;2.75;;;;;;;23.19;40.67;96535.97;5100258;28;20079;-86
2023/05/30 10:36:09;;;;;;;5.10;2.70;;;;;;;23.07;40.86;96528.81;5100101;28;20047;-87
2023/05/30 10:38:57;;;;;;;6.55;2.80;;;;;;;23.11;40.36;96514.94;5100307;28;20040;-86
2023/05/30 10:41:33;;;;;;;7.65;3.10;;;;;;;23.22;37.57;96517.72;5100665;28;20454;-86
2023/05/30 10:44:14;;;;;;;7.35;3.28;;;;;;;22.95;37.16;96528.41;5100390;28;20118;-86
2023/05/30 10:46:52;;;;;;;6.18;3.00;;;;;;;22.94;38.46;96524.06;5101264;28;20086;-88
2023/05/30 10:49:24;;;;;;;6.50;3.15;;;;;;;22.74;40.23;96521.59;5101144;28;20052;-86
2023/05/30 10:51:59;;;;;;;4.45;2.40;;;;;;;23.08;42.30;96524.88;5101657;28;20047;-86
2023/05/30 10:54:30;;;;;;;5.22;2.45;;;;;;;23.32;40.36;96516.91;5098228;28;20127;-87
2023/05/30 10:56:59;;;;;;;5.50;2.55;;;;;;;23.38;38.77;96510.56;5100224;28;20519;-86
2023/05/30 10:59:26;;;;;;;8.80;3.00;;;;;;;23.18;38.14;96512.97;5098177;28;20044;-88
2023/05/30 11:02:00;;;;;;;7.97;2.88;;;;;;;22.63;39.63;96521.56;5100815;28;20055;-86
2023/05/30 11:04:30;;;;;;;5.88;2.38;;;;;;;22.78;37.71;96516.06;5101922;28;20040;-86
2023/05/30 11:06:57;;;;;;;4.45;2.35;;;;;;;22.61;38.51;96512.84;5102368;28;20059;-88
2023/05/30 11:09:24;;;;;;;5.75;3.20;;;;;;;22.29;39.12;96512.75;5102438;28;20044;-87
2023/05/30 11:11:56;;;;;;;5.13;2.95;;;;;;;22.09;41.45;96517.78;5102320;28;20104;-88
2023/05/30 11:14:28;;;;;;;5.30;2.65;;;;;;;22.13;42.39;96504.78;5100173;28;20090;-88
2023/05/30 11:17:01;;;;;;;3.83;2.80;;;;;;;22.06;42.58;96510.22;5097696;28;20055;-87
2023/05/30 11:19:29;;;;;;;10.45;3.50;;;;;;;21.92;42.74;96509.38;5098269;28;20044;-86
2023/05/30 11:21:57;;;;;;;5.15;3.00;;;;;;;21.98;43.07;96514.19;5099697;28;20042;-88
2023/05/30 11:24:24;;;;;;;7.03;2.92;;;;;;;21.91;42.09;96505.81;5091254;28;20043;-87
2023/05/30 11:26:59;;;;;;;5.53;3.00;;;;;;;22.13;43.73;96502.00;5110828;28;20104;-87
2023/05/30 11:29:47;;;;;;;6.57;2.85;;;;;;;22.41;40.94;96497.72;5098853;28;20043;-86
2023/05/30 11:32:15;;;;;;;6.05;3.50;;;;;;;22.47;41.71;96512.81;5098773;28;20285;-87
2023/05/30 11:34:41;;;;;;;10.00;3.25;;;;;;;22.43;41.08;96506.44;5101797;28;20044;-89
2023/05/30 11:37:09;;;;;;;6.07;2.95;;;;;;;22.36;42.48;96504.44;5098020;28;20040;-89
2023/05/30 11:39:36;;;;;;;5.15;2.90;;;;;;;22.32;41.76;96505.63;5099205;28;20323;-88